createdAt,value
2015-02-21T08:12:34.184Z,59
2015-02-21T08:12:52.468Z,60
2015-02-21T08:13:10.736Z,55
2015-02-21T08:13:28.990Z,83
2015-02-21T08:13:47.274Z,64
2015-02-21T08:14:05.526Z,54
2015-02-21T08:14:23.795Z,65
2015-02-21T08:14:42.056Z,18
2015-02-21T08:15:00.324Z,76
2015-02-21T08:15:18.601Z,80
2015-02-21T08:15:36.864Z,73
2015-02-21T08:15:55.131Z,75
2015-02-21T08:16:13.399Z,70
2015-02-21T08:16:31.668Z,60
2015-02-21T08:16:49.936Z,79
2015-02-21T08:17:08.216Z,80
2015-02-21T08:17:26.470Z,78
2015-02-21T08:17:44.728Z,88
2015-02-21T08:18:03.015Z,79
2015-02-21T08:18:21.279Z,96
2015-02-21T08:18:39.531Z,97
2015-02-21T08:18:57.808Z,96
2015-02-21T08:19:16.066Z,77
2015-02-21T08:19:34.344Z,96
2015-02-21T08:19:52.627Z,92
2015-02-21T08:20:10.876Z,80
2015-02-21T08:20:29.156Z,99
2015-02-21T08:20:47.423Z,72
2015-02-21T08:21:05.681Z,78
2015-02-21T08:21:23.948Z,100
2015-02-21T08:21:42.221Z,107
2015-02-21T08:22:00.522Z,84
2015-02-21T08:22:18.786Z,96
2015-02-21T08:22:37.045Z,98
2015-02-21T08:22:55.302Z,111
2015-02-21T08:23:13.572Z,98
2015-02-21T08:23:31.838Z,92
2015-02-21T08:23:50.117Z,109
2015-02-21T08:24:08.390Z,118
2015-02-21T08:24:26.659Z,101
2015-02-21T08:24:44.917Z,122
2015-02-21T08:25:03.204Z,111
2015-02-21T08:25:21.472Z,137
2015-02-21T08:25:39.728Z,113
2015-02-21T08:25:58.007Z,109
2015-02-21T08:26:16.282Z,117
2015-02-21T08:26:34.538Z,124
2015-02-21T08:26:52.826Z,126
2015-02-21T08:27:11.095Z,144
2015-02-21T08:27:29.349Z,186
2015-02-21T08:27:47.617Z,118
2015-02-21T08:28:05.907Z,128
2015-02-21T08:28:24.183Z,124
2015-02-21T08:28:42.453Z,93
2015-02-21T08:29:00.701Z,97
2015-02-21T08:29:18.970Z,173
2015-02-21T08:29:37.252Z,228
2015-02-21T08:29:55.509Z,225
2015-02-21T08:30:13.780Z,230
2015-02-21T08:30:32.071Z,234
2015-02-21T08:30:50.334Z,377
2015-02-21T08:31:08.628Z,240
2015-02-21T08:31:26.877Z,231
2015-02-21T08:31:45.149Z,223
2015-02-21T08:32:03.431Z,229
2015-02-21T08:32:21.700Z,230
2015-02-21T08:32:39.967Z,228
2015-02-21T08:32:58.226Z,232
2015-02-21T08:33:16.516Z,230
2015-02-21T08:33:34.788Z,228
2015-02-21T08:33:53.054Z,225
2015-02-21T08:34:11.326Z,226
2015-02-21T08:34:29.581Z,232
2015-02-21T08:34:47.847Z,232
2015-02-21T08:35:06.132Z,217
2015-02-21T08:35:24.390Z,232
2015-02-21T08:35:42.679Z,232
2015-02-21T08:36:00.929Z,910
2015-02-21T08:36:19.199Z,850
2015-02-21T08:36:37.480Z,845
2015-02-21T08:36:55.733Z,840
2015-02-21T08:37:14.174Z,841
2015-02-21T08:37:32.446Z,826
2015-02-21T08:37:50.718Z,838
2015-02-21T08:38:08.973Z,840
2015-02-21T08:38:27.253Z,834
2015-02-21T08:38:45.505Z,821
2015-02-21T08:39:03.784Z,835
2015-02-21T08:39:22.049Z,819
2015-02-21T08:39:40.317Z,842
2015-02-21T08:39:58.588Z,832
2015-02-21T08:40:16.854Z,828
2015-02-21T08:40:35.133Z,832
2015-02-21T08:40:53.389Z,823
2015-02-21T08:41:11.662Z,834
2015-02-21T08:41:29.946Z,830
2015-02-21T08:41:48.212Z,825
2015-02-21T08:42:06.479Z,833
2015-02-21T08:42:24.752Z,827
2015-02-21T08:42:43.031Z,824
2015-02-21T08:43:01.286Z,826
2015-02-21T08:43:19.571Z,825
2015-02-21T08:43:37.847Z,826
2015-02-21T08:43:56.108Z,833
2015-02-21T08:44:14.380Z,833
2015-02-21T08:44:32.663Z,828
2015-02-21T08:44:50.919Z,819
2015-02-21T08:45:09.198Z,471
2015-02-21T08:45:27.469Z,361
2015-02-21T08:45:45.750Z,420
2015-02-21T08:46:04.006Z,419
2015-02-21T08:46:22.286Z,424
2015-02-21T08:46:40.540Z,422
2015-02-21T08:46:58.820Z,421
2015-02-21T08:47:17.079Z,415
2015-02-21T08:47:35.358Z,424
2015-02-21T08:47:53.631Z,427
2015-02-21T08:48:11.914Z,404
2015-02-21T08:48:30.186Z,414
2015-02-21T08:48:48.445Z,419
2015-02-21T08:49:06.712Z,421
2015-02-21T08:49:24.981Z,416
2015-02-21T08:49:43.263Z,423
2015-02-21T08:50:01.522Z,413
2015-02-21T08:50:19.814Z,413
2015-02-21T08:50:38.086Z,419
2015-02-21T08:50:56.351Z,420
2015-02-21T08:51:14.620Z,420
2015-02-21T08:51:32.889Z,419
2015-02-21T08:51:51.155Z,417
2015-02-21T08:52:09.415Z,417
2015-02-21T08:52:27.694Z,425
2015-02-21T08:52:45.961Z,458
2015-02-21T08:53:04.233Z,427
2015-02-21T08:53:22.505Z,417
2015-02-21T08:53:40.783Z,426
2015-02-21T08:53:59.052Z,403
2015-02-21T08:54:17.327Z,430
2015-02-21T08:54:35.592Z,412
2015-02-21T08:54:53.867Z,425
2015-02-21T08:55:12.139Z,420
2015-02-21T08:55:30.393Z,419
2015-02-21T08:55:48.680Z,409
2015-02-21T08:56:06.947Z,421
2015-02-21T08:56:25.198Z,426
2015-02-21T08:56:43.468Z,413
2015-02-21T08:57:01.734Z,418
2015-02-21T08:57:20.006Z,426
2015-02-21T08:57:38.295Z,416
2015-02-21T08:57:56.576Z,413
2015-02-21T08:58:14.850Z,417
2015-02-21T08:58:33.115Z,416
2015-02-21T08:58:51.387Z,425
2015-02-21T08:59:09.667Z,426
2015-02-21T08:59:27.922Z,422
2015-02-21T08:59:46.204Z,428
2015-02-21T09:00:04.482Z,421
2015-02-21T09:00:22.739Z,421
2015-02-21T09:00:41.022Z,376
2015-02-21T09:00:59.293Z,426
2015-02-21T09:01:17.574Z,405
2015-02-21T09:01:35.834Z,427
2015-02-21T09:01:54.115Z,415
2015-02-21T09:02:12.374Z,419
2015-02-21T09:02:30.658Z,418
2015-02-21T09:02:48.924Z,424
2015-02-21T09:03:07.197Z,415
2015-02-21T09:03:25.472Z,413
2015-02-21T09:03:43.741Z,411
2015-02-21T09:04:02.014Z,427
2015-02-21T09:04:20.274Z,416
2015-02-21T09:04:38.550Z,416
2015-02-21T09:04:56.813Z,421
2015-02-21T09:05:15.081Z,406
2015-02-21T09:05:33.365Z,408
2015-02-21T09:05:51.618Z,419
2015-02-21T09:06:09.902Z,415
2015-02-21T09:06:28.177Z,411
2015-02-21T09:06:46.444Z,419
2015-02-21T09:07:04.711Z,424
2015-02-21T09:07:22.981Z,412
2015-02-21T09:07:41.245Z,416
2015-02-21T09:07:59.515Z,423
2015-02-21T09:08:17.787Z,410
2015-02-21T09:08:36.056Z,424
2015-02-21T09:08:54.329Z,424
2015-02-21T09:09:12.607Z,420
2015-02-21T09:09:30.894Z,422
2015-02-21T09:09:49.159Z,423
2015-02-21T09:10:07.414Z,407
2015-02-21T09:10:25.684Z,365
2015-02-21T09:10:43.956Z,397
2015-02-21T09:11:02.242Z,410
2015-02-21T09:11:20.503Z,393
2015-02-21T09:11:38.792Z,397
2015-02-21T09:11:57.053Z,421
2015-02-21T09:12:15.330Z,395
2015-02-21T09:12:33.447Z,400
2015-02-21T09:12:51.704Z,402
2015-02-21T09:13:09.971Z,404
2015-02-21T09:13:28.239Z,417
2015-02-21T09:13:46.524Z,401
2015-02-21T09:14:04.783Z,401
2015-02-21T09:14:23.058Z,410
2015-02-21T09:14:41.342Z,408
2015-02-21T09:14:59.598Z,414
2015-02-21T09:15:17.882Z,405
2015-02-21T09:15:36.136Z,398
2015-02-21T09:15:54.423Z,401
2015-02-21T09:16:12.679Z,403
2015-02-21T09:16:30.974Z,403
2015-02-21T09:16:49.239Z,407
2015-02-21T09:17:07.491Z,400
2015-02-21T09:17:25.773Z,408
2015-02-21T09:17:44.028Z,415
2015-02-21T09:18:02.291Z,400
2015-02-21T09:18:20.572Z,413
2015-02-21T09:18:38.843Z,407
2015-02-21T09:18:57.120Z,387
2015-02-21T09:19:15.388Z,406
2015-02-21T09:19:33.637Z,404
2015-02-21T09:19:51.922Z,398
2015-02-21T09:20:10.190Z,407
2015-02-21T09:20:28.443Z,420
2015-02-21T09:20:46.710Z,398
2015-02-21T09:21:04.982Z,397
2015-02-21T09:21:23.275Z,403
2015-02-21T09:21:41.569Z,406
2015-02-21T09:21:59.830Z,403
2015-02-21T09:22:18.090Z,395
2015-02-21T09:22:36.356Z,406
2015-02-21T09:22:54.639Z,391
2015-02-21T09:23:12.896Z,403
2015-02-21T09:23:31.170Z,398
2015-02-21T09:23:49.436Z,390
2015-02-21T09:24:07.718Z,399
2015-02-21T09:24:25.996Z,401
2015-02-21T09:24:44.243Z,403
2015-02-21T09:25:02.531Z,404
2015-02-21T09:25:20.789Z,387
2015-02-21T09:25:39.056Z,409
2015-02-21T09:25:57.336Z,396
2015-02-21T09:26:15.590Z,399
2015-02-21T09:26:33.877Z,401
2015-02-21T09:26:52.134Z,392
2015-02-21T09:27:10.402Z,416
2015-02-21T09:27:28.688Z,404
2015-02-21T09:27:46.944Z,404
2015-02-21T09:28:05.215Z,406
2015-02-21T09:28:23.498Z,411
2015-02-21T09:28:41.758Z,412
2015-02-21T09:29:00.028Z,396
2015-02-21T09:29:18.317Z,407
2015-02-21T09:29:36.598Z,375
2015-02-21T09:29:54.862Z,393
2015-02-21T09:30:13.128Z,400
2015-02-21T09:30:31.398Z,408
2015-02-21T09:30:49.679Z,411
2015-02-21T09:31:07.944Z,385
2015-02-21T09:31:26.222Z,404
2015-02-21T09:31:44.490Z,400
2015-02-21T09:32:02.760Z,401
2015-02-21T09:32:21.034Z,410
2015-02-21T09:32:39.314Z,348
2015-02-21T09:32:57.568Z,420
2015-02-21T09:33:15.856Z,399
2015-02-21T09:33:34.134Z,398
2015-02-21T09:33:53.348Z,405
2015-02-21T09:34:10.671Z,393
2015-02-21T09:34:28.958Z,395
2015-02-21T09:34:47.224Z,404
2015-02-21T09:35:05.492Z,396
2015-02-21T09:35:23.747Z,382
2015-02-21T09:35:41.874Z,394
2015-02-21T09:36:00.149Z,394
2015-02-21T09:36:18.422Z,397
2015-02-21T09:36:36.672Z,389
2015-02-21T09:36:54.964Z,402
2015-02-21T09:37:13.223Z,407
2015-02-21T09:37:31.484Z,394
2015-02-21T09:37:49.775Z,398
2015-02-21T09:38:08.044Z,387
2015-02-21T09:38:26.300Z,400
2015-02-21T09:38:44.590Z,395
2015-02-21T09:39:02.859Z,411
2015-02-21T09:39:21.124Z,409
2015-02-21T09:39:39.393Z,409
2015-02-21T09:39:57.669Z,411
2015-02-21T09:40:15.925Z,400
2015-02-21T09:40:34.214Z,395
2015-02-21T09:40:52.474Z,401
2015-02-21T09:41:10.761Z,406
2015-02-21T09:41:29.018Z,383
2015-02-21T09:41:47.300Z,391
2015-02-21T09:42:05.556Z,396
2015-02-21T09:42:23.827Z,411
2015-02-21T09:42:42.107Z,395
2015-02-21T09:43:00.381Z,389
2015-02-21T09:43:18.642Z,400
2015-02-21T09:43:36.922Z,362
2015-02-21T09:43:55.197Z,397
2015-02-21T09:44:13.463Z,406
2015-02-21T09:44:31.736Z,401
2015-02-21T09:44:50.016Z,407
2015-02-21T09:45:08.272Z,406
2015-02-21T09:45:26.560Z,408
2015-02-21T09:45:44.818Z,393
2015-02-21T09:46:03.093Z,403
2015-02-21T09:46:21.365Z,399
2015-02-21T09:46:39.646Z,393
2015-02-21T09:46:57.900Z,401
2015-02-21T09:47:16.186Z,394
2015-02-21T09:47:34.457Z,395
2015-02-21T09:47:52.727Z,393
2015-02-21T09:48:10.983Z,412
2015-02-21T09:48:29.272Z,348
2015-02-21T09:48:47.533Z,363
2015-02-21T09:49:05.814Z,579
2015-02-21T09:49:24.085Z,368
2015-02-21T09:49:42.357Z,416
2015-02-21T09:50:00.625Z,401
2015-02-21T09:50:18.895Z,400
2015-02-21T09:50:37.316Z,400
2015-02-21T09:50:55.583Z,402
2015-02-21T09:51:13.851Z,382
2015-02-21T09:51:32.122Z,384
2015-02-21T09:51:50.384Z,405
2015-02-21T09:52:08.676Z,398
2015-02-21T09:52:26.932Z,393
2015-02-21T09:52:44.559Z,393
2015-02-21T09:53:02.828Z,393
2015-02-21T09:53:21.102Z,398
2015-02-21T09:53:39.379Z,403
2015-02-21T09:53:57.665Z,400
2015-02-21T09:54:15.920Z,411
2015-02-21T09:54:34.189Z,395
2015-02-21T09:54:52.473Z,419
2015-02-21T09:55:10.731Z,388
2015-02-21T09:55:29.015Z,390
2015-02-21T09:55:47.280Z,403
2015-02-21T13:28:30.592Z,161
2015-02-21T13:28:49.287Z,108
2015-02-21T13:29:13.187Z,108
2015-02-21T13:30:36.254Z,116
2015-02-21T13:30:54.913Z,116
2015-02-21T13:31:13.620Z,111
2015-02-21T13:31:32.279Z,128
2015-02-21T13:31:50.968Z,115
2015-02-21T13:32:09.639Z,99
2015-02-21T13:32:28.302Z,111
2015-02-21T13:32:58.173Z,126
2015-02-21T13:33:16.849Z,126
2015-02-21T13:33:35.520Z,118
2015-02-21T13:33:54.210Z,127
2015-02-21T13:34:12.864Z,112
2015-02-21T13:34:31.559Z,131
2015-02-21T13:34:50.236Z,131
2015-02-21T13:35:08.910Z,126
2015-02-21T13:35:27.723Z,139
2015-02-21T13:35:46.417Z,127
2015-02-21T13:36:05.085Z,126
2015-02-21T13:36:23.750Z,140
2015-02-21T13:36:42.426Z,138
2015-02-21T13:37:01.113Z,132
2015-02-21T13:37:19.775Z,136
2015-02-21T13:37:38.451Z,131
2015-02-21T13:37:57.135Z,131
2015-02-21T13:38:15.177Z,149
2015-02-21T13:38:33.842Z,155
2015-02-21T13:39:18.868Z,133
2015-02-21T13:39:37.133Z,144
2015-02-21T13:47:39.331Z,76
2015-02-21T13:47:57.609Z,88
2015-02-21T13:48:15.874Z,65
2015-02-21T13:48:34.129Z,74
2015-02-21T13:48:52.412Z,88
2015-02-21T13:49:10.679Z,83
2015-02-21T13:49:28.929Z,82
2015-02-21T13:49:47.213Z,102
2015-02-21T13:50:05.463Z,106
2015-02-21T13:50:23.908Z,166
2015-02-21T13:50:42.188Z,89
2015-02-21T13:51:00.435Z,105
2015-02-21T13:51:18.719Z,67
2015-02-21T13:51:36.982Z,102
2015-02-21T13:51:55.253Z,95
2015-02-21T13:52:13.519Z,96
2015-02-21T13:52:31.771Z,103
2015-02-21T13:52:50.045Z,103
2015-02-21T13:53:08.334Z,116
2015-02-21T13:53:26.602Z,96
2015-02-21T13:53:44.854Z,95
2015-02-21T13:54:03.123Z,107
2015-02-21T13:54:21.392Z,121
2015-02-21T13:54:39.656Z,129
2015-02-21T13:54:57.941Z,116
2015-02-21T13:55:16.209Z,107
2015-02-21T13:55:34.472Z,123
2015-02-21T13:55:52.757Z,117
2015-02-21T13:56:11.011Z,124
2015-02-21T13:56:29.141Z,114
2015-02-21T13:56:47.397Z,107
2015-02-21T13:57:05.665Z,125
2015-02-21T13:57:24.061Z,127
2015-02-21T13:57:42.351Z,119
2015-02-21T13:58:00.618Z,126
2015-02-21T13:58:18.871Z,117
2015-02-21T13:58:37.146Z,125
2015-02-21T13:58:55.415Z,122
2015-02-21T13:59:13.688Z,127
2015-02-21T13:59:31.975Z,125
2015-02-21T13:59:50.239Z,128
2015-02-21T14:00:08.511Z,132
2015-02-21T14:00:26.779Z,124
2015-02-21T14:00:45.062Z,125
2015-02-21T14:01:03.324Z,137
2015-02-21T14:01:21.439Z,143
2015-02-21T14:01:39.728Z,132
2015-02-21T14:01:57.987Z,132
2015-02-21T14:02:16.271Z,138
2015-02-21T14:02:34.538Z,136
2015-02-21T14:02:52.796Z,153
2015-02-21T14:03:11.076Z,132
2015-02-21T14:03:29.330Z,132
2015-02-21T14:03:47.614Z,150
2015-02-21T14:04:05.882Z,125
2015-02-21T14:04:24.137Z,150
2015-02-21T14:04:42.409Z,149
2015-02-21T14:05:00.681Z,148
2015-02-21T14:05:18.947Z,144
2015-02-21T14:05:37.230Z,142
2015-02-21T14:05:55.490Z,149
2015-02-21T14:06:13.773Z,151
2015-02-21T14:06:32.041Z,119
2015-02-21T14:06:50.295Z,158
2015-02-21T14:07:08.571Z,158
2015-02-21T14:07:26.834Z,101
2015-02-21T14:07:45.104Z,174
2015-02-21T14:08:03.381Z,157
2015-02-21T14:08:21.649Z,226
2015-02-21T14:08:39.939Z,153
2015-02-21T14:08:58.211Z,128
2015-02-21T14:09:16.487Z,192
2015-02-21T14:09:34.755Z,142
2015-02-21T14:09:53.038Z,119
2015-02-21T14:10:11.308Z,120
2015-02-21T14:10:29.582Z,183
2015-02-21T14:10:47.837Z,158
2015-02-21T14:11:06.119Z,153
2015-02-21T14:11:24.396Z,169
2015-02-21T14:11:42.658Z,164
2015-02-21T14:12:00.937Z,149
2015-02-21T14:12:19.204Z,159
2015-02-21T14:12:37.470Z,163
2015-02-21T14:12:55.743Z,164
2015-02-21T14:13:14.009Z,160
2015-02-21T14:13:32.281Z,174
2015-02-21T14:13:50.554Z,171
2015-02-21T14:14:08.826Z,167
2015-02-21T14:14:27.095Z,172
2015-02-21T14:14:45.363Z,171
2015-02-21T14:15:03.631Z,169
2015-02-21T14:15:21.901Z,165
2015-02-21T14:15:40.158Z,167
2015-02-21T14:15:58.446Z,169
2015-02-21T14:16:16.714Z,175
2015-02-21T14:16:34.964Z,178
2015-02-21T14:16:53.248Z,167
2015-02-21T14:17:11.525Z,182
2015-02-21T14:17:29.151Z,151
2015-02-21T14:17:47.425Z,178
2015-02-21T14:18:05.677Z,181
2015-02-21T14:18:23.953Z,183
2015-02-21T14:18:42.219Z,181
2015-02-21T14:19:00.490Z,185
2015-02-21T14:19:18.770Z,188
2015-02-21T14:19:37.048Z,175
2015-02-21T14:19:55.306Z,178
2015-02-21T14:20:13.576Z,186
2015-02-21T14:20:31.850Z,168
2015-02-21T14:20:50.121Z,185
2015-02-21T14:21:08.399Z,188
2015-02-21T14:21:26.664Z,183
2015-02-21T14:21:44.936Z,194
2015-02-21T14:22:03.204Z,178
2015-02-21T14:22:21.471Z,197
2015-02-21T14:22:39.729Z,197
2015-02-21T14:22:58.005Z,172
2015-02-21T14:23:16.300Z,192
2015-02-21T14:23:34.548Z,186
2015-02-21T14:23:52.825Z,199
2015-02-21T14:24:11.095Z,195
2015-02-21T14:24:29.521Z,193
2015-02-21T14:24:47.805Z,198
2015-02-21T14:25:06.080Z,194
2015-02-21T14:25:24.350Z,204
2015-02-21T14:25:42.618Z,190
2015-02-21T14:26:00.891Z,199
2015-02-21T14:26:19.147Z,197
2015-02-21T14:26:37.425Z,203
2015-02-21T14:26:55.684Z,193
2015-02-21T14:27:13.972Z,207
2015-02-21T14:27:32.268Z,193
2015-02-21T14:27:50.503Z,202
2015-02-21T14:28:08.775Z,151
2015-02-21T14:28:27.045Z,197
2015-02-21T14:28:45.327Z,194
2015-02-21T14:29:03.598Z,202
2015-02-21T14:29:21.884Z,211
2015-02-21T14:29:40.139Z,205
2015-02-21T14:29:58.419Z,203
2015-02-21T14:30:16.690Z,211
2015-02-21T14:30:34.943Z,198
2015-02-21T14:30:53.215Z,196
2015-02-21T14:31:11.501Z,195
2015-02-21T14:31:29.752Z,202
2015-02-21T14:31:48.025Z,202
2015-02-21T14:32:06.317Z,206
2015-02-21T14:32:24.582Z,221
2015-02-21T14:32:42.858Z,206
2015-02-21T14:33:01.117Z,210
2015-02-21T14:33:19.386Z,210
2015-02-21T14:33:37.826Z,200
2015-02-21T14:33:56.095Z,202
2015-02-21T14:34:14.363Z,201
2015-02-21T14:34:32.646Z,206
2015-02-21T14:34:50.922Z,206
2015-02-21T14:35:09.199Z,210
2015-02-21T14:35:27.449Z,212
2015-02-21T14:35:45.724Z,208
2015-02-21T14:36:04.007Z,217
2015-02-21T14:36:22.257Z,222
2015-02-21T14:36:40.542Z,210
2015-02-21T14:36:58.810Z,221
2015-02-21T14:37:17.076Z,209
2015-02-21T14:37:35.362Z,223
2015-02-21T14:37:53.621Z,211
2015-02-21T14:38:11.899Z,216
2015-02-21T14:38:30.171Z,216
2015-02-21T14:38:48.425Z,217
2015-02-21T14:39:06.709Z,204
2015-02-21T14:39:24.969Z,224
2015-02-21T14:39:43.256Z,217
2015-02-21T14:40:01.512Z,218
2015-02-21T14:40:19.780Z,215
2015-02-21T14:40:38.082Z,220
2015-02-21T14:40:56.341Z,218
2015-02-21T14:41:14.626Z,217
2015-02-21T14:41:32.886Z,222
2015-02-21T14:41:51.151Z,217
2015-02-21T14:42:09.419Z,225
2015-02-21T14:42:27.701Z,217
2015-02-21T14:42:45.970Z,222
2015-02-21T14:43:04.224Z,220
2015-02-21T14:43:22.510Z,225
2015-02-21T14:43:40.774Z,222
2015-02-21T14:43:59.029Z,220
2015-02-21T14:44:17.310Z,245
2015-02-21T14:44:35.565Z,215
2015-02-21T14:44:53.851Z,221
2015-02-21T14:45:12.111Z,224
2015-02-21T14:45:30.396Z,224
2015-02-21T14:45:48.664Z,228
2015-02-21T14:46:06.917Z,224
2015-02-21T14:46:25.187Z,235
2015-02-21T14:46:43.459Z,235
2015-02-21T14:47:01.745Z,224
2015-02-21T14:47:20.006Z,256
2015-02-21T14:47:38.275Z,215
2015-02-21T14:47:56.560Z,230
2015-02-21T14:48:14.833Z,232
2015-02-21T14:48:33.108Z,234
2015-02-21T14:48:51.392Z,230
2015-02-21T14:49:09.666Z,229
2015-02-21T14:49:27.922Z,236
2015-02-21T14:49:46.206Z,236
2015-02-21T14:50:04.475Z,240
2015-02-21T14:50:22.739Z,248
2015-02-21T14:50:41.022Z,230
2015-02-21T14:50:59.297Z,235
2015-02-21T14:51:17.553Z,241
2015-02-21T14:51:35.193Z,234
2015-02-21T14:51:53.466Z,228
2015-02-21T14:52:11.736Z,233
2015-02-21T14:52:30.001Z,241
2015-02-21T14:52:48.132Z,243
2015-02-21T14:53:06.409Z,236
2015-02-21T14:53:24.697Z,240
2015-02-21T14:53:42.930Z,254
2015-02-21T14:54:01.213Z,244
2015-02-21T14:54:19.478Z,228
2015-02-21T14:54:37.746Z,282
2015-02-21T14:54:56.010Z,203
2015-02-21T14:55:14.288Z,236
2015-02-21T14:55:32.567Z,250
2015-02-21T14:55:50.825Z,238
2015-02-21T14:56:09.099Z,243
2015-02-21T14:56:27.377Z,229
2015-02-21T14:56:45.662Z,234
2015-02-21T14:57:03.901Z,186
2015-02-21T14:57:22.189Z,273
2015-02-21T14:57:39.826Z,244
2015-02-21T14:57:58.082Z,237
2015-02-21T14:58:16.353Z,225
2015-02-21T14:58:34.623Z,239
2015-02-21T14:58:52.897Z,242
2015-02-21T14:59:11.168Z,242
2015-02-21T14:59:29.451Z,244
2015-02-21T14:59:47.708Z,245
2015-02-21T15:00:05.994Z,226
2015-02-21T15:00:24.260Z,222
2015-02-21T15:00:42.515Z,264
2015-02-21T15:01:00.800Z,266
2015-02-21T15:01:19.073Z,253
2015-02-21T15:01:37.342Z,251
2015-02-21T15:01:55.599Z,256
2015-02-21T15:02:13.866Z,243
2015-02-21T15:02:32.154Z,254
2015-02-21T15:02:50.435Z,249
2015-02-21T15:03:08.694Z,252
2015-02-21T15:03:26.973Z,224
2015-02-21T15:03:45.254Z,239
2015-02-21T15:04:03.527Z,254
2015-02-21T15:04:21.790Z,256
2015-02-21T15:04:40.065Z,240
2015-02-21T15:04:58.340Z,242
2015-02-21T15:05:16.609Z,236
2015-02-21T15:05:34.894Z,240
2015-02-21T15:05:53.180Z,239
2015-02-21T15:06:11.448Z,238
2015-02-21T15:06:29.722Z,241
2015-02-21T15:06:48.005Z,240
2015-02-21T15:07:06.267Z,258
2015-02-21T15:07:24.543Z,247
2015-02-21T15:07:42.814Z,232
2015-02-21T15:08:01.091Z,239
2015-02-21T15:08:19.359Z,255
2015-02-21T15:08:37.625Z,247
2015-02-21T15:08:55.899Z,248
2015-02-21T15:09:25.643Z,244
2015-02-21T17:15:22.348Z,297
2015-02-21T17:15:41.006Z,293
2015-02-21T17:15:59.698Z,304
2015-02-21T17:16:18.368Z,305
2015-02-21T17:16:37.027Z,303
2015-02-21T17:16:55.709Z,306
2015-02-21T17:17:14.374Z,278
2015-02-21T17:17:33.045Z,306
2015-02-21T17:17:51.720Z,294
2015-02-21T17:18:10.405Z,306
2015-02-21T17:18:29.065Z,295
2015-02-21T17:18:47.754Z,314
2015-02-21T17:19:06.435Z,292
2015-02-21T17:19:25.107Z,310
2015-02-21T17:19:43.784Z,302
2015-02-21T17:20:04.429Z,295
2015-02-21T17:20:23.103Z,319
2015-02-21T17:20:41.790Z,305
2015-02-21T17:21:00.473Z,299
2015-02-21T17:21:19.136Z,303
2015-02-21T17:21:37.845Z,302
2015-02-21T17:21:56.509Z,297
2015-02-21T17:22:15.182Z,293
2015-02-21T17:22:33.841Z,308
2015-02-21T17:22:52.524Z,253
2015-02-21T17:23:11.207Z,306
2015-02-21T17:23:29.868Z,292
2015-02-21T17:23:48.559Z,296
2015-02-21T17:24:07.237Z,304
2015-02-21T17:24:25.932Z,305
2015-02-21T17:24:44.604Z,311
2015-02-21T17:25:03.275Z,300
2015-02-21T17:25:21.933Z,295
2015-02-21T17:25:40.610Z,330
2015-02-21T17:25:59.293Z,326
2015-02-21T17:26:17.968Z,255
2015-02-21T17:26:36.653Z,314
2015-02-21T17:26:55.309Z,315
2015-02-21T17:27:13.984Z,303
2015-02-21T17:27:32.652Z,307
2015-02-21T17:27:51.325Z,312
2015-02-21T17:28:09.350Z,270
2015-02-21T17:28:28.030Z,316
2015-02-21T17:28:46.741Z,329
2015-02-21T17:29:05.390Z,340
2015-02-21T17:29:24.066Z,469
2015-02-21T17:29:42.737Z,287
2015-02-21T17:30:01.411Z,315
2015-02-21T17:30:20.086Z,304
2015-02-21T17:30:38.760Z,317
2015-02-21T17:30:57.451Z,305
2015-02-21T17:31:16.128Z,301
2015-02-21T17:31:34.802Z,308
2015-02-21T17:31:53.484Z,307
2015-02-21T17:32:12.164Z,308
2015-02-21T17:32:30.834Z,324
2015-02-21T17:32:49.491Z,314
2015-02-21T17:33:08.169Z,308
2015-02-21T17:33:26.844Z,301
2015-02-21T17:33:45.525Z,311
2015-02-21T17:34:04.182Z,305
2015-02-21T17:34:22.853Z,311
2015-02-21T17:34:41.530Z,299
2015-02-21T17:35:00.220Z,311
2015-02-21T17:35:18.892Z,309
2015-02-21T17:35:37.552Z,325
2015-02-21T17:35:56.223Z,309
2015-02-21T17:36:14.897Z,308
2015-02-21T17:36:33.571Z,305
2015-02-21T17:36:52.243Z,307
2015-02-21T17:37:10.936Z,308
2015-02-21T17:37:29.601Z,307
2015-02-21T17:37:48.286Z,297
2015-02-21T17:38:06.949Z,318
2015-02-21T17:38:25.636Z,306
2015-02-21T17:38:44.318Z,311
2015-02-21T17:39:02.982Z,314
2015-02-21T17:39:21.678Z,306
2015-02-21T17:39:40.334Z,305
2015-02-21T17:39:59.007Z,311
2015-02-21T17:40:17.684Z,310
2015-02-21T17:40:36.372Z,304
2015-02-21T17:40:55.047Z,308
2015-02-21T17:41:13.726Z,310
2015-02-21T17:41:32.400Z,307
2015-02-21T17:41:51.069Z,309
2015-02-21T17:42:09.747Z,315
2015-02-21T17:42:28.428Z,308
2015-02-21T17:42:47.098Z,310
2015-02-21T17:43:05.764Z,308
2015-02-21T17:43:24.442Z,302
2015-02-21T17:43:43.118Z,309
2015-02-21T17:44:01.784Z,310
2015-02-21T17:44:20.472Z,307
2015-02-21T17:44:39.144Z,307
2015-02-21T17:44:57.813Z,314
2015-02-21T17:45:16.506Z,307
2015-02-21T17:45:35.198Z,308
2015-02-21T17:45:53.861Z,307
2015-02-21T17:46:12.539Z,305
2015-02-21T17:46:31.224Z,310
2015-02-21T17:46:49.899Z,309
2015-02-21T17:47:08.573Z,310
2015-02-21T17:47:27.244Z,310
2015-02-21T17:47:45.904Z,303
2015-02-21T17:48:04.584Z,317
2015-02-21T17:48:23.273Z,311
2015-02-21T17:48:41.939Z,309
2015-02-21T17:49:00.612Z,314
2015-02-21T17:49:19.279Z,310
2015-02-21T17:49:37.964Z,305
2015-02-21T17:49:56.634Z,312
2015-02-21T17:50:15.295Z,309
2015-02-21T17:50:33.989Z,313
2015-02-21T17:50:52.669Z,309
2015-02-21T17:51:11.328Z,309
2015-02-21T17:51:29.999Z,303
2015-02-21T17:51:48.680Z,316
2015-02-21T17:52:07.345Z,305
2015-02-21T17:52:26.020Z,312
2015-02-21T17:52:44.694Z,314
2015-02-21T17:53:03.390Z,314
2015-02-21T17:53:22.067Z,310
2015-02-21T17:53:40.721Z,314
2015-02-21T17:53:59.408Z,308
2015-02-21T17:54:18.070Z,313
2015-02-21T17:54:36.760Z,310
2015-02-21T17:54:55.443Z,310
2015-02-21T17:55:14.107Z,315
2015-02-21T17:55:32.778Z,315
2015-02-21T17:55:51.464Z,309
2015-02-21T17:56:10.142Z,313
2015-02-21T17:56:28.671Z,319
2015-02-21T17:56:47.343Z,315
2015-02-21T17:57:06.025Z,309
2015-02-21T17:57:24.689Z,317
2015-02-21T17:57:43.367Z,307
2015-02-21T17:58:02.031Z,316
2015-02-21T17:58:20.717Z,315
2015-02-21T17:58:39.386Z,319
2015-02-21T17:58:58.078Z,311
2015-02-21T17:59:16.752Z,306
2015-02-21T17:59:35.419Z,304
2015-02-21T17:59:54.113Z,311
2015-02-21T18:00:12.778Z,313
2015-02-21T18:00:31.591Z,315
2015-02-21T18:00:50.280Z,305
2015-02-21T18:01:08.957Z,311
2015-02-21T18:01:27.616Z,313
2015-02-21T18:01:46.294Z,305
2015-02-21T18:02:04.989Z,313
2015-02-21T18:02:23.659Z,300
2015-02-21T18:02:42.338Z,319
2015-02-21T18:03:01.024Z,300
2015-02-21T18:03:19.699Z,316
2015-02-21T18:03:38.363Z,313
2015-02-21T18:03:57.049Z,303
2015-02-21T18:04:15.712Z,308
2015-02-21T18:04:34.401Z,319
2015-02-21T18:04:53.063Z,310
2015-02-21T18:05:11.764Z,313
2015-02-21T18:05:30.446Z,313
2015-02-21T18:05:49.112Z,312
2015-02-21T18:06:07.802Z,308
2015-02-21T18:06:26.480Z,315
2015-02-21T18:06:44.495Z,319
2015-02-21T18:07:03.169Z,314
2015-02-21T18:07:21.842Z,314
2015-02-21T18:07:40.528Z,309
2015-02-21T18:07:59.190Z,310
2015-02-21T18:08:17.889Z,317
2015-02-21T18:08:36.551Z,316
2015-02-21T18:08:55.239Z,311
2015-02-21T18:09:13.910Z,310
2015-02-21T18:09:32.572Z,310
2015-02-21T18:09:51.252Z,321
2015-02-21T18:10:09.943Z,313
2015-02-21T18:10:28.599Z,310
2015-02-21T18:10:47.289Z,315
2015-02-21T18:11:05.336Z,311
2015-02-21T18:11:23.998Z,312
2015-02-21T18:11:42.681Z,315
2015-02-21T18:12:01.371Z,316
2015-02-21T18:12:20.050Z,309
2015-02-21T18:12:38.704Z,320
2015-02-21T18:12:57.394Z,315
2015-02-21T18:13:16.064Z,319
2015-02-21T18:13:34.743Z,294